首页
METAR-TAF:

METAR-TAF

机场 :

Gamèti, 西北特區, 加拿大

纬度: 64-06-58N, 经度: 117-18-35W, 海拔: 221米

当前天气观测

该预报发布于1小时和19分钟前的23:00 UTC
风速2节,风向
温度 -27°C
湿度 69%
气压 1012 hPa
能見度: 24.1公里
散云层高于12000英尺
散云层高于21000英尺

METAR: CYRA 232300Z 01002KT 15SM SCT120 SCT210 M27/M31 A2987 RMK AC3CI1 SLP148

时间: 17:19 (00:19 UTC)

预报

该预报发布于5小时和41分钟前的18:38 UTC
预报有效从23日的 19点(UTC)到 24日的 01点(UTC)
风速3节,风向多变
能見度: 10公里
少量云层高于10000英尺
散云层高于18000英尺
从 23日的 2100点(UTC)
风速3节,风向多变
能見度: 10公里
散云层高于6000英尺
多云层高于10000英尺
短暂存在
从 23日的 21点(UTC)到 24日的 01点(UTC)
能見度: 8.0公里
散云层高于2000英尺
多云层高于6000英尺
阴天层高于10000英尺
小雪

TAF: CYRA 231838Z 2319/2401 VRB03KT P6SM FEW100 SCT180 FM232100 VRB03KT P6SM SCT060 BKN100 TEMPO 2321/2401 5SM -SN SCT020 BKN060 OVC100 RMK NXT FCST WILL BE ISSUED AT 241645Z

超过4000个机场的气象观测和天气预报(METAR&TAF报告)。

可查询的气象台以黄色和红色小点在地图上表示。

将鼠标移到小点上方,可查看气象台名称。

然后点击查看天气观测和预报。

如需切换地图:点击带黑十字的绿色按钮放大地图;点击带横线的绿色按钮缩小地图;或者点击绿色箭头查看邻近地区的地图。


METAR-TAF: